createdAt,value
2023-08-29T00:01:44.809Z,97.87
2023-08-29T00:04:12.760Z,98.11
2023-08-29T00:06:40.624Z,98.41
2023-08-29T00:09:09.478Z,98.05
2023-08-29T00:11:37.343Z,98.21
2023-08-29T00:14:04.724Z,98.54
2023-08-29T00:16:31.456Z,99.03
2023-08-29T00:18:59.284Z,99.11
2023-08-29T00:21:26.665Z,99.45
2023-08-29T00:23:57.006Z,99.37
2023-08-29T00:26:28.501Z,99.38
2023-08-29T00:28:56.170Z,99.08
2023-08-29T00:31:23.535Z,98.52
2023-08-29T00:33:50.644Z,98.34
2023-08-29T00:36:17.475Z,98.25
2023-08-29T00:38:44.878Z,98.27
2023-08-29T00:41:12.285Z,98.15
2023-08-29T00:43:43.157Z,98.48
2023-08-29T00:46:10.635Z,98.17
2023-08-29T00:48:38.680Z,98.41
2023-08-29T00:51:06.059Z,98.62
2023-08-29T00:53:35.019Z,98.76
2023-08-29T00:56:06.371Z,98.48
2023-08-29T00:58:34.626Z,98.31
2023-08-29T01:01:03.429Z,98.48
2023-08-29T01:03:31.542Z,98.47
2023-08-29T01:05:58.848Z,98.33
2023-08-29T01:08:26.555Z,98.49
2023-08-29T01:11:00.038Z,98.20
2023-08-29T01:13:31.567Z,99.44
2023-08-29T01:16:04.268Z,99.25
2023-08-29T01:18:34.439Z,99.59
2023-08-29T01:21:09.829Z,99.20
2023-08-29T01:23:44.079Z,99.26
2023-08-29T01:26:14.941Z,99.51
2023-08-29T01:28:44.929Z,99.18
2023-08-29T01:31:13.903Z,99.79
2023-08-29T01:33:42.251Z,99.75
2023-08-29T01:36:10.271Z,99.31
2023-08-29T01:38:37.621Z,99.35
2023-08-29T01:41:05.242Z,99.37
2023-08-29T01:43:34.368Z,99.78
2023-08-29T01:46:01.933Z,99.09
2023-08-29T01:48:30.431Z,99.16
2023-08-29T01:50:57.834Z,99.17
2023-08-29T01:53:25.347Z,99.74
2023-08-29T01:55:53.186Z,99.53
2023-08-29T01:58:21.793Z,98.81
2023-08-29T02:00:51.476Z,99.01
2023-08-29T02:03:19.165Z,99.12
2023-08-29T02:05:46.204Z,99.21
2023-08-29T02:08:13.536Z,99.84
2023-08-29T02:10:41.179Z,99.59
2023-08-29T02:13:08.583Z,99.78
2023-08-29T02:15:36.163Z,99.62
2023-08-29T02:18:09.010Z,99.85
2023-08-29T02:20:38.449Z,99.82
2023-08-29T02:23:06.197Z,100.00
2023-08-29T02:25:33.637Z,100.00
2023-08-29T02:28:01.149Z,100.00
2023-08-29T02:30:28.932Z,99.77
2023-08-29T02:32:56.431Z,100.00
2023-08-29T02:35:25.810Z,100.00
2023-08-29T02:37:53.092Z,100.00
2023-08-29T02:40:20.872Z,100.00
2023-08-29T02:42:48.315Z,100.00
2023-08-29T02:45:15.769Z,100.00
2023-08-29T02:47:43.591Z,99.63
2023-08-29T02:50:11.296Z,99.83
2023-08-29T02:52:40.285Z,99.04
2023-08-29T02:55:10.747Z,99.06
2023-08-29T02:57:37.520Z,98.80
2023-08-29T03:00:05.953Z,98.86
2023-08-29T03:02:33.765Z,98.83
2023-08-29T03:05:01.080Z,98.87
2023-08-29T03:07:29.337Z,99.10
2023-08-29T03:09:58.823Z,99.08
2023-08-29T03:12:26.286Z,99.67
2023-08-29T03:14:54.203Z,99.30
2023-08-29T03:17:24.186Z,99.16
2023-08-29T03:19:51.503Z,99.27
2023-08-29T03:22:18.905Z,98.86
2023-08-29T03:24:47.141Z,99.15
2023-08-29T03:27:16.072Z,98.83
2023-08-29T03:29:43.309Z,98.98
2023-08-29T03:32:10.738Z,98.72
2023-08-29T03:34:42.505Z,98.62
2023-08-29T03:37:09.797Z,98.84
2023-08-29T03:39:37.317Z,99.01
2023-08-29T03:42:05.330Z,99.30
2023-08-29T03:44:33.433Z,99.38
2023-08-29T03:47:01.033Z,99.44
2023-08-29T03:49:28.365Z,99.34
2023-08-29T03:51:57.271Z,99.41
2023-08-29T03:54:24.919Z,99.29
2023-08-29T03:56:52.656Z,99.93
2023-08-29T03:59:20.351Z,100.00
2023-08-29T04:01:49.238Z,100.00
2023-08-29T04:04:16.863Z,100.00
2023-08-29T04:06:44.747Z,100.00
2023-08-29T04:09:12.113Z,100.00
2023-08-29T04:11:39.477Z,100.00
2023-08-29T04:14:06.969Z,100.00
2023-08-29T04:16:34.462Z,100.00
2023-08-29T04:19:03.416Z,100.00
2023-08-29T04:21:31.383Z,100.00
2023-08-29T04:23:59.051Z,100.00
2023-08-29T04:26:26.320Z,100.00
2023-08-29T04:28:53.695Z,100.00
2023-08-29T04:31:21.746Z,100.00
2023-08-29T04:33:48.519Z,100.00
2023-08-29T04:36:20.476Z,100.00
2023-08-29T04:38:48.072Z,100.00
2023-08-29T04:41:15.535Z,100.00
2023-08-29T04:43:42.214Z,100.00
2023-08-29T04:46:12.526Z,100.00
2023-08-29T04:48:42.341Z,100.00
2023-08-29T04:51:11.948Z,100.00
2023-08-29T04:53:41.058Z,100.00
2023-08-29T04:56:08.562Z,100.00
2023-08-29T04:58:36.312Z,100.00
2023-08-29T05:01:03.841Z,100.00
2023-08-29T05:03:31.610Z,100.00
2023-08-29T05:05:59.301Z,100.00
2023-08-29T05:08:29.787Z,100.00
2023-08-29T05:10:58.849Z,100.00
2023-08-29T05:13:26.764Z,100.00
2023-08-29T05:15:54.223Z,100.00
2023-08-29T05:18:21.533Z,100.00
2023-08-29T05:20:48.783Z,100.00
2023-08-29T05:23:15.932Z,100.00
2023-08-29T05:25:43.512Z,100.00
2023-08-29T05:28:12.439Z,100.00
2023-08-29T05:30:39.883Z,100.00
2023-08-29T05:33:08.892Z,100.00
2023-08-29T05:35:36.374Z,100.00
2023-08-29T05:38:03.798Z,100.00
2023-08-29T05:40:34.237Z,100.00
2023-08-29T05:43:01.910Z,100.00
2023-08-29T05:45:31.974Z,100.00
2023-08-29T05:47:59.573Z,100.00
2023-08-29T05:50:26.991Z,100.00
2023-08-29T05:52:54.326Z,100.00
2023-08-29T05:55:21.508Z,100.00
2023-08-29T05:57:48.272Z,100.00
2023-08-29T06:00:16.451Z,100.00
2023-08-29T06:02:45.380Z,100.00
2023-08-29T06:05:13.134Z,100.00
2023-08-29T06:07:40.378Z,100.00
2023-08-29T06:10:08.074Z,100.00
2023-08-29T06:12:34.875Z,100.00
2023-08-29T06:15:02.271Z,100.00
2023-08-29T06:17:29.057Z,100.00
2023-08-29T06:19:57.434Z,100.00
2023-08-29T06:22:24.121Z,100.00
2023-08-29T06:24:50.975Z,100.00
2023-08-29T06:27:17.764Z,100.00
2023-08-29T06:29:44.526Z,100.00
2023-08-29T06:32:11.231Z,100.00
2023-08-29T06:34:38.000Z,100.00
2023-08-29T06:37:07.283Z,100.00
2023-08-29T06:39:34.024Z,100.00
2023-08-29T06:42:00.796Z,100.00
2023-08-29T06:44:28.353Z,100.00
2023-08-29T06:46:55.677Z,100.00
2023-08-29T06:49:23.101Z,100.00
2023-08-29T06:51:49.800Z,100.00
2023-08-29T06:54:18.714Z,100.00
2023-08-29T06:56:46.233Z,100.00
2023-08-29T06:59:13.963Z,100.00
2023-08-29T07:01:41.323Z,100.00
2023-08-29T07:04:10.311Z,100.00
2023-08-29T07:06:37.076Z,100.00
2023-08-29T07:09:04.753Z,100.00
2023-08-29T07:11:34.027Z,100.00
2023-08-29T07:14:02.171Z,100.00
2023-08-29T07:16:29.696Z,100.00
2023-08-29T07:18:57.044Z,100.00
2023-08-29T07:21:24.495Z,100.00
2023-08-29T07:23:51.319Z,100.00
2023-08-29T07:26:18.086Z,100.00
2023-08-29T07:28:46.225Z,100.00
2023-08-29T07:31:13.130Z,100.00
2023-08-29T07:33:40.008Z,100.00
2023-08-29T07:36:06.777Z,100.00
2023-08-29T07:38:33.463Z,100.00
2023-08-29T07:41:00.334Z,100.00
2023-08-29T07:43:28.372Z,100.00
2023-08-29T07:46:00.071Z,100.00
2023-08-29T07:48:27.164Z,100.00
2023-08-29T07:50:53.860Z,100.00
2023-08-29T07:53:20.652Z,100.00
2023-08-29T07:55:48.260Z,100.00
2023-08-29T07:58:15.921Z,100.00
2023-08-29T08:00:42.688Z,100.00
2023-08-29T08:03:11.373Z,100.00
2023-08-29T08:05:38.114Z,100.00
2023-08-29T08:08:05.659Z,100.00
2023-08-29T08:10:35.073Z,100.00
2023-08-29T08:13:02.015Z,100.00
2023-08-29T08:15:28.827Z,100.00
2023-08-29T08:17:56.363Z,100.00
2023-08-29T08:20:27.518Z,100.00
2023-08-29T08:22:54.712Z,100.00
2023-08-29T08:25:21.396Z,100.00
2023-08-29T08:27:48.880Z,100.00
2023-08-29T08:30:15.679Z,100.00
2023-08-29T08:32:42.467Z,100.00
2023-08-29T08:35:11.643Z,100.00
2023-08-29T08:37:40.886Z,98.99
2023-08-29T08:40:09.208Z,99.31
2023-08-29T08:42:37.481Z,99.25
2023-08-29T08:45:06.968Z,99.23
2023-08-29T08:47:35.123Z,99.08
2023-08-29T08:50:04.540Z,99.19
2023-08-29T08:52:34.397Z,98.35
2023-08-29T08:55:03.237Z,98.85
2023-08-29T08:57:33.060Z,99.34
2023-08-29T08:59:59.782Z,99.84
2023-08-29T09:02:27.545Z,99.04
2023-08-29T09:04:54.668Z,98.67
2023-08-29T09:07:21.430Z,98.48
2023-08-29T09:10:08.231Z,98.66
2023-08-29T09:12:34.992Z,99.03
2023-08-29T09:15:03.171Z,97.50
2023-08-29T09:17:29.996Z,96.73
2023-08-29T09:19:59.170Z,96.78
2023-08-29T09:22:26.168Z,97.10
2023-08-29T09:24:54.000Z,97.76
2023-08-29T09:27:22.606Z,98.83
2023-08-29T09:29:49.600Z,99.13
2023-08-29T09:32:19.259Z,99.92
2023-08-29T09:34:46.789Z,99.96
2023-08-29T09:37:13.674Z,100.00
2023-08-29T09:39:40.921Z,100.00
2023-08-29T09:42:08.916Z,100.00
2023-08-29T09:44:39.949Z,100.00
2023-08-29T09:47:09.377Z,100.00
2023-08-29T09:49:43.813Z,100.00
2023-08-29T09:52:12.091Z,100.00
2023-08-29T09:54:44.668Z,100.00
2023-08-29T09:57:15.056Z,100.00
2023-08-29T09:59:46.883Z,100.00
2023-08-29T10:02:14.995Z,100.00
2023-08-29T10:04:45.781Z,100.00
2023-08-29T10:07:16.615Z,100.00
2023-08-29T10:09:44.616Z,100.00
2023-08-29T10:12:13.088Z,100.00
2023-08-29T10:14:41.799Z,100.00
2023-08-29T10:17:31.037Z,100.00
2023-08-29T10:19:59.539Z,100.00
2023-08-29T10:22:29.356Z,100.00
2023-08-29T10:24:58.497Z,100.00
2023-08-29T10:27:25.962Z,100.00
2023-08-29T10:29:52.818Z,100.00
2023-08-29T10:32:22.399Z,100.00
2023-08-29T10:34:51.437Z,100.00
2023-08-29T10:37:18.800Z,100.00
2023-08-29T10:39:45.628Z,100.00
2023-08-29T10:42:16.643Z,100.00
2023-08-29T10:44:45.727Z,100.00
2023-08-29T10:47:20.820Z,100.00
2023-08-29T10:49:48.401Z,100.00
2023-08-29T10:52:15.741Z,100.00
2023-08-29T10:54:42.639Z,100.00
2023-08-29T10:57:28.677Z,100.00
2023-08-29T10:59:55.830Z,100.00
2023-08-29T11:02:25.838Z,100.00
2023-08-29T11:04:56.211Z,100.00
2023-08-29T11:07:24.695Z,100.00
2023-08-29T11:10:12.567Z,100.00
2023-08-29T11:13:03.450Z,100.00
2023-08-29T11:16:13.338Z,100.00
2023-08-29T11:18:41.606Z,100.00
2023-08-29T11:21:09.616Z,100.00
2023-08-29T11:23:40.954Z,100.00
2023-08-29T11:26:08.820Z,100.00
2023-08-29T11:28:40.344Z,100.00
2023-08-29T11:31:09.769Z,100.00
2023-08-29T11:33:38.107Z,100.00
2023-08-29T11:36:07.745Z,100.00
2023-08-29T11:38:34.880Z,100.00
2023-08-29T11:41:17.395Z,100.00
2023-08-29T11:44:47.351Z,100.00
2023-08-29T11:46:40.912Z,100.00
2023-08-29T11:49:15.460Z,100.00
2023-08-29T11:51:45.054Z,100.00
2023-08-29T11:54:40.936Z,99.91
2023-08-29T11:57:08.814Z,97.97
2023-08-29T11:59:39.612Z,97.90
2023-08-29T12:02:07.456Z,96.61
2023-08-29T12:04:38.890Z,96.72
2023-08-29T12:07:09.088Z,96.74
2023-08-29T12:09:36.584Z,95.79
2023-08-29T12:12:04.679Z,97.47
2023-08-29T12:14:31.544Z,98.18
2023-08-29T12:16:59.021Z,96.11
2023-08-29T12:19:26.515Z,95.45
2023-08-29T12:21:54.572Z,95.70
2023-08-29T12:24:23.503Z,95.46
2023-08-29T12:26:50.710Z,95.13
2023-08-29T12:29:18.138Z,94.99
2023-08-29T12:31:45.517Z,95.09
2023-08-29T12:34:13.063Z,94.48
2023-08-29T12:36:40.810Z,93.39
2023-08-29T12:39:14.789Z,94.05
2023-08-29T12:41:44.313Z,92.61
2023-08-29T12:44:10.962Z,90.99
2023-08-29T12:46:37.933Z,90.77
2023-08-29T12:49:05.680Z,91.78
2023-08-29T12:51:33.135Z,91.35
2023-08-29T12:54:00.305Z,89.59
2023-08-29T12:56:28.134Z,89.32
2023-08-29T12:58:57.034Z,89.27
2023-08-29T13:01:23.867Z,89.49
2023-08-29T13:03:50.686Z,89.45
2023-08-29T13:06:17.456Z,90.55
2023-08-29T13:08:45.519Z,89.65
2023-08-29T13:11:12.787Z,90.71
2023-08-29T13:13:40.307Z,91.44
2023-08-29T13:16:09.246Z,93.73
2023-08-29T13:18:35.974Z,94.20
2023-08-29T13:21:05.143Z,97.55
2023-08-29T13:23:32.935Z,99.69
2023-08-29T13:26:00.292Z,100.00
2023-08-29T13:28:27.614Z,100.00
2023-08-29T13:30:55.343Z,100.00
2023-08-29T13:33:23.970Z,100.00
2023-08-29T13:35:50.801Z,100.00
2023-08-29T13:38:17.537Z,100.00
2023-08-29T13:40:45.742Z,100.00
2023-08-29T13:43:12.815Z,100.00
2023-08-29T13:45:39.833Z,100.00
2023-08-29T13:48:10.910Z,100.00
2023-08-29T13:50:40.347Z,100.00
2023-08-29T13:53:09.789Z,98.72
2023-08-29T13:55:37.576Z,96.30
2023-08-29T13:58:06.306Z,94.48
2023-08-29T14:00:34.197Z,92.26
2023-08-29T14:03:01.667Z,92.77
2023-08-29T14:05:29.399Z,91.52
2023-08-29T14:08:01.120Z,92.36
2023-08-29T14:10:31.038Z,89.16
2023-08-29T14:12:57.848Z,90.65
2023-08-29T14:15:25.386Z,89.40
2023-08-29T14:17:52.862Z,89.70
2023-08-29T14:20:23.184Z,88.83
2023-08-29T14:22:50.324Z,89.04
2023-08-29T14:25:18.602Z,90.30
2023-08-29T14:27:45.945Z,91.36
2023-08-29T14:30:14.092Z,89.91
2023-08-29T14:32:40.842Z,90.91
2023-08-29T14:35:08.200Z,89.95
2023-08-29T14:37:35.610Z,90.67
2023-08-29T14:40:02.936Z,90.47
2023-08-29T14:42:31.062Z,90.64
2023-08-29T14:45:00.404Z,91.30
2023-08-29T14:47:29.398Z,90.97
2023-08-29T14:49:56.157Z,91.27
2023-08-29T14:52:23.260Z,91.12
2023-08-29T14:54:50.558Z,87.06
2023-08-29T14:57:17.800Z,84.16
2023-08-29T14:59:47.603Z,83.75
2023-08-29T15:02:14.967Z,82.56
2023-08-29T15:04:44.311Z,81.22
2023-08-29T15:07:11.253Z,80.05
2023-08-29T15:09:38.801Z,82.21
2023-08-29T15:12:05.867Z,82.93
2023-08-29T15:14:33.670Z,79.84
2023-08-29T15:17:10.091Z,77.35
2023-08-29T15:19:37.535Z,78.60
2023-08-29T15:22:05.053Z,78.41
2023-08-29T15:24:32.250Z,78.38
2023-08-29T15:26:59.017Z,80.48
2023-08-29T15:29:27.035Z,78.20
2023-08-29T15:31:54.334Z,77.25
2023-08-29T15:34:23.137Z,75.31
2023-08-29T15:36:53.525Z,75.21
2023-08-29T15:39:20.989Z,77.42
2023-08-29T15:41:48.958Z,77.44
2023-08-29T15:44:19.947Z,76.20
2023-08-29T15:46:47.325Z,79.15
2023-08-29T15:49:14.791Z,79.70
2023-08-29T15:51:43.687Z,80.25
2023-08-29T15:54:11.240Z,79.12
2023-08-29T15:56:37.941Z,77.71
2023-08-29T15:59:05.476Z,77.27
2023-08-29T16:01:32.947Z,76.99
2023-08-29T16:04:00.719Z,79.52
2023-08-29T16:06:28.197Z,82.72
2023-08-29T16:08:58.579Z,85.20
2023-08-29T16:11:28.108Z,85.52
2023-08-29T16:13:55.711Z,87.20
2023-08-29T16:16:23.240Z,89.34
2023-08-29T16:18:50.734Z,85.75
2023-08-29T16:21:17.886Z,88.33
2023-08-29T16:23:44.653Z,86.30
2023-08-29T16:26:16.953Z,86.11
2023-08-29T16:28:47.270Z,85.34
2023-08-29T16:31:15.161Z,87.08
2023-08-29T16:33:41.942Z,84.96
2023-08-29T16:36:09.244Z,82.17
2023-08-29T16:38:36.567Z,82.27
2023-08-29T16:41:04.343Z,81.67
2023-08-29T16:43:33.061Z,79.32
2023-08-29T16:46:00.456Z,79.18
2023-08-29T16:48:27.890Z,81.23
2023-08-29T16:50:55.795Z,75.46
2023-08-29T16:53:22.620Z,75.18
2023-08-29T16:55:49.966Z,72.44
2023-08-29T16:58:19.242Z,72.32
2023-08-29T17:00:48.347Z,72.72
2023-08-29T17:03:15.776Z,72.12
2023-08-29T17:05:42.633Z,72.47
2023-08-29T17:08:09.769Z,70.89
2023-08-29T17:10:41.804Z,69.29
2023-08-29T17:13:09.139Z,69.06
2023-08-29T17:15:35.960Z,69.34
2023-08-29T17:18:07.160Z,68.63
2023-08-29T17:20:34.652Z,68.06
2023-08-29T17:23:02.169Z,67.58
2023-08-29T17:25:30.390Z,67.16
2023-08-29T17:27:57.180Z,67.42
2023-08-29T17:30:27.220Z,67.67
2023-08-29T17:32:57.832Z,67.39
2023-08-29T17:35:26.772Z,68.11
2023-08-29T17:37:54.833Z,68.74
2023-08-29T17:40:22.584Z,68.69
2023-08-29T17:42:50.041Z,69.55
2023-08-29T17:45:17.285Z,68.57
2023-08-29T17:47:44.573Z,68.74
2023-08-29T17:50:11.828Z,68.48
2023-08-29T17:52:40.686Z,71.55
2023-08-29T17:55:09.055Z,72.83
2023-08-29T17:57:36.283Z,74.38
2023-08-29T18:00:04.038Z,74.08
2023-08-29T18:02:31.305Z,74.90
2023-08-29T18:04:58.600Z,75.58
2023-08-29T18:07:25.419Z,76.81
2023-08-29T18:10:09.613Z,77.30
2023-08-29T18:12:38.522Z,77.95
2023-08-29T18:15:07.365Z,77.49
2023-08-29T18:17:34.767Z,78.54
2023-08-29T18:20:02.314Z,77.13
2023-08-29T18:22:30.497Z,76.56
2023-08-29T18:24:58.005Z,78.18
2023-08-29T18:27:26.856Z,76.64
2023-08-29T18:29:53.674Z,77.41
2023-08-29T18:32:20.463Z,76.30
2023-08-29T18:34:48.036Z,76.33
2023-08-29T18:37:14.765Z,76.64
2023-08-29T18:39:41.944Z,78.25
2023-08-29T18:42:09.979Z,79.24
2023-08-29T18:44:39.482Z,79.25
2023-08-29T18:47:07.219Z,78.77
2023-08-29T18:49:34.684Z,78.63
2023-08-29T18:52:02.067Z,78.88
2023-08-29T18:54:29.699Z,78.68
2023-08-29T18:56:57.110Z,78.06
2023-08-29T18:59:27.709Z,79.42
2023-08-29T19:01:56.722Z,79.60
2023-08-29T19:04:24.085Z,79.85
2023-08-29T19:06:50.889Z,80.54
2023-08-29T19:09:18.156Z,80.92
2023-08-29T19:11:45.666Z,81.88
2023-08-29T19:14:12.500Z,81.73
2023-08-29T19:16:42.817Z,81.50
2023-08-29T19:19:12.110Z,81.04
2023-08-29T19:21:39.131Z,80.02
2023-08-29T19:24:07.164Z,79.73
2023-08-29T19:26:39.875Z,80.14
2023-08-29T19:29:09.863Z,79.37
2023-08-29T19:31:36.974Z,79.20
2023-08-29T19:34:03.740Z,79.14
2023-08-29T19:36:32.875Z,78.91
2023-08-29T19:39:12.188Z,79.15
2023-08-29T19:41:44.935Z,78.97
2023-08-29T19:44:12.505Z,79.53
2023-08-29T19:46:40.450Z,79.88
2023-08-29T19:49:08.241Z,80.33
2023-08-29T19:51:38.703Z,80.53
2023-08-29T19:54:06.756Z,81.01
2023-08-29T19:56:34.172Z,80.97
2023-08-29T19:59:00.960Z,81.40
2023-08-29T20:01:28.061Z,81.81
2023-08-29T20:03:55.602Z,82.07
2023-08-29T20:06:24.019Z,81.81
2023-08-29T20:08:52.983Z,82.55
2023-08-29T20:11:20.358Z,82.75
2023-08-29T20:13:47.168Z,82.54
2023-08-29T20:16:14.520Z,83.33
2023-08-29T20:18:41.914Z,83.85
2023-08-29T20:21:09.124Z,84.49
2023-08-29T20:23:39.714Z,84.72
2023-08-29T20:26:16.996Z,85.07
2023-08-29T20:28:44.632Z,86.33
2023-08-29T20:31:15.144Z,87.68
2023-08-29T20:33:41.952Z,87.81
2023-08-29T20:36:14.367Z,88.54
2023-08-29T20:38:41.731Z,87.93
2023-08-29T20:41:09.748Z,89.30
2023-08-29T20:43:38.888Z,91.22
2023-08-29T20:46:09.004Z,91.86
2023-08-29T20:48:36.702Z,91.88
2023-08-29T20:51:04.556Z,92.21
2023-08-29T20:53:35.263Z,92.23
2023-08-29T20:56:02.074Z,92.22
2023-08-29T20:58:29.522Z,92.21
2023-08-29T21:00:58.505Z,92.68
2023-08-29T21:03:25.862Z,92.93
2023-08-29T21:05:52.731Z,93.44
2023-08-29T21:08:20.174Z,94.13
2023-08-29T21:10:47.388Z,94.86
2023-08-29T21:13:15.294Z,95.14
2023-08-29T21:15:42.665Z,94.72
2023-08-29T21:18:11.542Z,94.65
2023-08-29T21:20:39.637Z,94.17
2023-08-29T21:23:07.017Z,94.61
2023-08-29T21:25:36.593Z,95.65
2023-08-29T21:28:04.367Z,96.10
2023-08-29T21:30:32.010Z,95.89
2023-08-29T21:32:58.856Z,95.59
2023-08-29T21:35:27.021Z,95.76
2023-08-29T21:37:53.674Z,95.97
2023-08-29T21:40:20.463Z,96.04
2023-08-29T21:42:49.820Z,95.72
2023-08-29T21:45:17.170Z,95.09
2023-08-29T21:47:48.363Z,94.78
2023-08-29T21:50:15.894Z,94.60
2023-08-29T21:52:44.689Z,94.63
2023-08-29T21:55:12.461Z,93.65
2023-08-29T21:57:40.541Z,93.66
2023-08-29T22:00:09.395Z,94.04
2023-08-29T22:02:36.345Z,93.55
2023-08-29T22:05:03.800Z,92.56
2023-08-29T22:07:31.263Z,92.89
2023-08-29T22:09:59.457Z,93.46
2023-08-29T22:12:26.673Z,94.34
2023-08-29T22:14:53.960Z,94.80
2023-08-29T22:17:21.478Z,95.92
2023-08-29T22:19:48.280Z,95.91
2023-08-29T22:22:15.901Z,95.58
2023-08-29T22:24:42.750Z,96.05
2023-08-29T22:27:11.445Z,95.59
2023-08-29T22:29:38.745Z,96.16
2023-08-29T22:32:06.150Z,95.64
2023-08-29T22:34:33.975Z,96.10
2023-08-29T22:37:00.891Z,95.86
2023-08-29T22:39:28.157Z,96.36
2023-08-29T22:41:55.811Z,95.51
2023-08-29T22:44:27.809Z,95.91
2023-08-29T22:46:58.270Z,95.41
2023-08-29T22:49:25.716Z,95.10
2023-08-29T22:51:52.971Z,94.30
2023-08-29T22:54:22.501Z,93.62
2023-08-29T22:56:49.893Z,93.78
2023-08-29T22:59:17.130Z,94.31
2023-08-29T23:01:48.307Z,94.75
2023-08-29T23:04:15.802Z,94.25
2023-08-29T23:06:43.765Z,95.31
2023-08-29T23:09:12.409Z,96.04
2023-08-29T23:11:42.329Z,97.36
2023-08-29T23:14:09.978Z,98.93
2023-08-29T23:16:37.616Z,96.55
2023-08-29T23:19:06.445Z,97.93
2023-08-29T23:21:33.682Z,97.50
2023-08-29T23:24:01.447Z,98.51
2023-08-29T23:26:29.171Z,98.61
2023-08-29T23:28:59.431Z,99.51
2023-08-29T23:31:27.105Z,99.49
2023-08-29T23:33:55.504Z,99.93
2023-08-29T23:36:24.728Z,100.00
2023-08-29T23:38:52.598Z,100.00
2023-08-29T23:41:23.099Z,100.00
2023-08-29T23:43:49.909Z,100.00
2023-08-29T23:46:17.415Z,100.00
2023-08-29T23:48:44.822Z,100.00
2023-08-29T23:51:12.362Z,100.00
2023-08-29T23:53:43.402Z,100.00
2023-08-29T23:56:10.712Z,100.00
2023-08-29T23:58:38.484Z,100.00
